createdAt,value
2019-05-12T00:00:33.094Z,1015.4
2019-05-12T00:01:35.562Z,1015.4
2019-05-12T00:02:40.061Z,1015.5
2019-05-12T00:03:42.855Z,1015.4
2019-05-12T00:04:45.041Z,1015.4
2019-05-12T00:05:48.586Z,1015.5
2019-05-12T00:06:50.980Z,1015.5
2019-05-12T00:07:53.122Z,1015.5
2019-05-12T00:08:57.823Z,1015.5
2019-05-12T00:10:00.275Z,1015.5
2019-05-12T00:11:02.425Z,1015.5
2019-05-12T00:12:04.508Z,1015.5
2019-05-12T00:13:09.552Z,1015.5
2019-05-12T00:14:11.968Z,1015.5
2019-05-12T00:15:14.108Z,1015.5
2019-05-12T00:16:17.986Z,1015.6
2019-05-12T00:17:20.133Z,1015.6
2019-05-12T00:18:22.263Z,1015.6
2019-05-12T00:19:24.351Z,1015.5
2019-05-12T00:20:28.692Z,1015.6
2019-05-12T00:21:30.908Z,1015.5
2019-05-12T00:22:33.269Z,1015.5
2019-05-12T00:23:35.457Z,1015.5
2019-05-12T00:24:39.869Z,1015.5
2019-05-12T00:25:42.254Z,1015.6
2019-05-12T00:26:47.593Z,1015.5
2019-05-12T00:27:55.817Z,1015.5
2019-05-12T00:29:05.063Z,1015.6
2019-05-12T00:30:13.789Z,1015.6
2019-05-12T00:31:23.449Z,1015.6
2019-05-12T00:32:29.237Z,1015.5
2019-05-12T00:33:35.169Z,1015.6
2019-05-12T00:34:41.384Z,1015.6
2019-05-12T00:35:48.101Z,1015.6
2019-05-12T00:36:52.226Z,1015.6
2019-05-12T00:38:00.793Z,1015.6
2019-05-12T00:39:04.605Z,1015.6
2019-05-12T00:40:12.285Z,1015.7
2019-05-12T00:41:19.804Z,1015.6
2019-05-12T00:42:29.923Z,1015.7
2019-05-12T00:43:35.347Z,1015.6
2019-05-12T00:44:42.315Z,1015.7
2019-05-12T00:45:49.192Z,1015.7
2019-05-12T00:46:54.652Z,1015.7
2019-05-12T00:48:01.949Z,1015.7
2019-05-12T00:49:08.763Z,1015.8
2019-05-12T00:50:13.714Z,1015.8
2019-05-12T00:51:19.717Z,1015.8
2019-05-12T00:52:21.991Z,1015.8
2019-05-12T00:53:42.804Z,1015.8
2019-05-12T00:54:48.209Z,1015.9
2019-05-12T00:55:50.859Z,1015.9
2019-05-12T00:56:53.223Z,1015.9
2019-05-12T00:57:58.491Z,1015.9
2019-05-12T00:59:00.836Z,1016
2019-05-12T01:00:03.943Z,1016
2019-05-12T01:01:08.462Z,1016.1
2019-05-12T01:02:11.036Z,1016
2019-05-12T01:03:13.156Z,1016
2019-05-12T01:04:17.881Z,1016.1
2019-05-12T01:05:20.200Z,1016.1
2019-05-12T01:06:23.351Z,1016.1
2019-05-12T01:07:28.574Z,1016.2
2019-05-12T01:08:38.258Z,1016.3
2019-05-12T01:09:45.839Z,1016.3
2019-05-12T01:10:55.390Z,1016.2
2019-05-12T01:12:02.598Z,1016.3
2019-05-12T01:13:05.096Z,1016.3
2019-05-12T01:14:12.734Z,1016.4
2019-05-12T01:15:28.334Z,1016.4
2019-05-12T01:16:34.023Z,1016.4
2019-05-12T01:17:40.807Z,1016.5
2019-05-12T01:18:43.807Z,1016.5
2019-05-12T01:19:48.836Z,1016.5
2019-05-12T01:20:53.190Z,1016.5
2019-05-12T01:21:59.493Z,1016.5
2019-05-12T01:23:05.232Z,1016.5
2019-05-12T01:24:14.110Z,1016.5
2019-05-12T01:25:18.700Z,1016.5
2019-05-12T01:26:22.815Z,1016.6
2019-05-12T01:27:31.484Z,1016.5
2019-05-12T01:28:38.617Z,1016.6
2019-05-12T01:29:42.297Z,1016.7
2019-05-12T01:30:49.105Z,1016.7
2019-05-12T01:31:58.541Z,1016.7
2019-05-12T01:33:10.696Z,1016.7
2019-05-12T01:34:19.818Z,1016.7
2019-05-12T01:35:31.564Z,1016.7
2019-05-12T01:36:42.731Z,1016.7
2019-05-12T01:37:54.408Z,1016.8
2019-05-12T01:39:10.338Z,1016.8
2019-05-12T01:40:20.934Z,1016.8
2019-05-12T01:41:34.601Z,1016.8
2019-05-12T01:42:45.220Z,1016.9
2019-05-12T01:43:58.352Z,1016.9
2019-05-12T01:45:03.747Z,1016.9
2019-05-12T01:46:13.305Z,1016.9
2019-05-12T01:47:19.153Z,1017
2019-05-12T01:48:24.252Z,1017
2019-05-12T01:49:32.175Z,1017.1
2019-05-12T01:50:35.293Z,1017
2019-05-12T01:51:42.210Z,1017.1
2019-05-12T01:52:48.135Z,1017.2
2019-05-12T01:53:51.904Z,1017.1
2019-05-12T01:55:20.513Z,1017.1
2019-05-12T01:56:23.747Z,1017.1
2019-05-12T01:57:31.467Z,1017.1
2019-05-12T01:58:34.621Z,1017.3
2019-05-12T01:59:41.423Z,1017.2
2019-05-12T02:00:44.763Z,1017.2
2019-05-12T02:01:49.212Z,1017.2
2019-05-12T02:02:53.896Z,1017.3
2019-05-12T02:04:00.773Z,1017.2
2019-05-12T02:05:08.974Z,1017.2
2019-05-12T02:06:13.867Z,1017.3
2019-05-12T02:07:18.779Z,1017.2
2019-05-12T02:08:21.831Z,1017.3
2019-05-12T02:09:24.703Z,1017.2
2019-05-12T02:10:29.413Z,1017.2
2019-05-12T02:11:32.918Z,1017.3
2019-05-12T02:12:38.704Z,1017.3
2019-05-12T02:13:41.015Z,1017.3
2019-05-12T02:14:44.986Z,1017.3
2019-05-12T02:15:50.506Z,1017.3
2019-05-12T02:16:53.888Z,1017.4
2019-05-12T02:18:00.736Z,1017.4
2019-05-12T02:19:04.411Z,1017.4
2019-05-12T02:20:12.957Z,1017.4
2019-05-12T02:21:15.732Z,1017.4
2019-05-12T02:22:22.066Z,1017.4
2019-05-12T02:23:28.703Z,1017.5
2019-05-12T02:24:32.029Z,1017.5
2019-05-12T02:25:38.673Z,1017.5
2019-05-12T02:28:13.635Z,1017.6
2019-05-12T02:29:18.471Z,1017.6
2019-05-12T02:30:21.346Z,1017.6
2019-05-12T02:31:23.727Z,1017.6
2019-05-12T02:32:52.290Z,1017.6
2019-05-12T02:34:05.439Z,1017.5
2019-05-12T02:35:08.749Z,1017.6
2019-05-12T02:36:11.074Z,1017.6
2019-05-12T02:37:18.606Z,1017.5
2019-05-12T02:38:20.872Z,1017.6
2019-05-12T02:39:27.191Z,1017.6
2019-05-12T02:40:29.565Z,1017.6
2019-05-12T02:41:34.845Z,1017.6
2019-05-12T02:42:38.181Z,1017.6
2019-05-12T02:43:40.665Z,1017.6
2019-05-12T02:44:44.812Z,1017.7
2019-05-12T02:45:48.027Z,1017.7
2019-05-12T02:46:51.530Z,1017.7
2019-05-12T02:47:57.444Z,1017.7
2019-05-12T02:49:00.129Z,1017.7
2019-05-12T02:50:05.629Z,1017.7
2019-05-12T02:51:08.645Z,1017.8
2019-05-12T02:52:11.682Z,1017.8
2019-05-12T02:53:17.665Z,1017.8
2019-05-12T02:54:20.543Z,1017.8
2019-05-12T02:55:26.957Z,1017.8
2019-05-12T02:56:29.216Z,1017.8
2019-05-12T02:57:34.566Z,1017.8
2019-05-12T02:58:37.172Z,1017.8
2019-05-12T02:59:40.389Z,1017.8
2019-05-12T03:00:46.709Z,1017.8
2019-05-12T03:01:49.096Z,1017.8
2019-05-12T03:02:54.950Z,1017.8
2019-05-12T03:03:57.985Z,1017.9
2019-05-12T03:05:00.504Z,1017.9
2019-05-12T03:06:05.784Z,1018
2019-05-12T03:07:07.901Z,1018
2019-05-12T03:08:10.298Z,1018
2019-05-12T03:09:15.397Z,1018
2019-05-12T03:10:18.032Z,1018
2019-05-12T03:11:20.142Z,1018
2019-05-12T03:12:25.824Z,1018
2019-05-12T03:13:27.933Z,1017.9
2019-05-12T03:14:30.422Z,1018
2019-05-12T03:15:45.885Z,1018
2019-05-12T03:16:48.021Z,1018
2019-05-12T03:17:50.390Z,1018.1
2019-05-12T03:18:56.132Z,1018.1
2019-05-12T03:19:58.198Z,1018.1
2019-05-12T03:21:00.677Z,1018.1
2019-05-12T03:22:07.653Z,1018.1
2019-05-12T03:23:09.690Z,1018.1
2019-05-12T03:24:17.789Z,1018.1
2019-05-12T03:25:30.160Z,1018.1
2019-05-12T03:26:36.698Z,1018.2
2019-05-12T03:27:39.348Z,1018.2
2019-05-12T03:28:44.870Z,1018.2
2019-05-12T03:29:47.895Z,1018.2
2019-05-12T03:30:50.288Z,1018.2
2019-05-12T03:32:00.227Z,1018.2
2019-05-12T03:33:11.634Z,1018.3
2019-05-12T03:34:47.954Z,1018.2
2019-05-12T03:36:00.426Z,1018.2
2019-05-12T03:37:19.413Z,1018.2
2019-05-12T03:38:27.936Z,1018.3
2019-05-12T03:39:30.632Z,1018.2
2019-05-12T03:40:39.167Z,1018.2
2019-05-12T03:41:44.902Z,1018.2
2019-05-12T03:42:47.320Z,1018.2
2019-05-12T03:43:50.164Z,1018.3
2019-05-12T03:44:56.266Z,1018.3
2019-05-12T03:45:58.694Z,1018.3
2019-05-12T03:47:01.159Z,1018.3
2019-05-12T03:48:07.066Z,1018.3
2019-05-12T03:49:09.439Z,1018.3
2019-05-12T03:50:15.107Z,1018.4
2019-05-12T03:51:17.230Z,1018.4
2019-05-12T03:52:20.033Z,1018.4
2019-05-12T03:53:25.557Z,1018.4
2019-05-12T03:54:27.720Z,1018.4
2019-05-12T03:55:42.104Z,1018.5
2019-05-12T03:56:49.241Z,1018.5
2019-05-12T03:57:51.317Z,1018.5
2019-05-12T03:58:57.769Z,1018.5
2019-05-12T04:00:00.856Z,1018.5
2019-05-12T04:01:07.139Z,1018.5
2019-05-12T04:02:09.686Z,1018.5
2019-05-12T04:03:15.638Z,1018.5
2019-05-12T04:04:18.484Z,1018.5
2019-05-12T04:05:24.038Z,1018.5
2019-05-12T04:06:26.959Z,1018.5
2019-05-12T04:07:28.996Z,1018.5
2019-05-12T04:08:31.097Z,1018.5
2019-05-12T04:09:36.736Z,1018.6
2019-05-12T04:10:38.809Z,1018.5
2019-05-12T04:11:44.663Z,1018.5
2019-05-12T04:12:47.132Z,1018.5
2019-05-12T04:13:49.492Z,1018.5
2019-05-12T04:14:55.333Z,1018.5
2019-05-12T04:15:57.441Z,1018.5
2019-05-12T04:16:59.846Z,1018.5
2019-05-12T04:18:06.818Z,1018.5
2019-05-12T04:19:09.615Z,1018.5
2019-05-12T04:20:15.545Z,1018.5
2019-05-12T04:21:17.666Z,1018.5
2019-05-12T04:22:20.030Z,1018.6
2019-05-12T04:23:25.223Z,1018.6
2019-05-12T04:24:27.357Z,1018.6
2019-05-12T04:25:53.573Z,1018.6
2019-05-12T04:27:18.946Z,1018.6
2019-05-12T04:28:24.781Z,1018.7
2019-05-12T04:29:27.909Z,1018.7
2019-05-12T04:30:29.988Z,1018.7
2019-05-12T04:31:35.031Z,1018.6
2019-05-12T04:32:37.476Z,1018.6
2019-05-12T04:33:39.971Z,1018.6
2019-05-12T04:34:46.707Z,1018.6
2019-05-12T04:35:48.803Z,1018.7
2019-05-12T04:36:50.890Z,1018.6
2019-05-12T04:37:56.707Z,1018.6
2019-05-12T04:38:58.830Z,1018.7
2019-05-12T04:40:01.330Z,1018.7
2019-05-12T04:41:07.731Z,1018.7
2019-05-12T04:42:10.500Z,1018.7
2019-05-12T04:43:16.523Z,1018.7
2019-05-12T04:44:18.680Z,1018.7
2019-05-12T04:45:21.397Z,1018.7
2019-05-12T04:46:27.359Z,1018.8
2019-05-12T04:47:29.432Z,1018.8
2019-05-12T04:48:36.153Z,1018.8
2019-05-12T04:49:38.556Z,1018.8
2019-05-12T04:50:41.173Z,1018.8
2019-05-12T04:51:47.429Z,1018.8
2019-05-12T04:52:49.810Z,1018.9
2019-05-12T04:53:55.127Z,1018.9
2019-05-12T04:54:57.503Z,1018.9
2019-05-12T04:56:20.263Z,1018.9
2019-05-12T04:57:27.052Z,1019
2019-05-12T04:58:29.141Z,1018.9
2019-05-12T04:59:34.796Z,1018.9
2019-05-12T05:00:37.596Z,1019
2019-05-12T05:01:40.121Z,1019
2019-05-12T05:02:45.849Z,1019
2019-05-12T05:03:48.318Z,1019
2019-05-12T05:04:50.414Z,1019
2019-05-12T05:05:55.279Z,1019.1
2019-05-12T05:06:57.356Z,1019.1
2019-05-12T05:07:59.444Z,1019.1
2019-05-12T05:09:04.725Z,1019.1
2019-05-12T05:10:07.847Z,1019
2019-05-12T05:11:09.983Z,1019.1
2019-05-12T05:12:14.240Z,1019.1
2019-05-12T05:13:16.324Z,1019.1
2019-05-12T05:14:18.459Z,1019.1
2019-05-12T05:15:20.535Z,1019.1
2019-05-12T05:16:25.263Z,1019.1
2019-05-12T05:17:27.658Z,1019.1
2019-05-12T05:18:29.782Z,1019.2
2019-05-12T05:19:34.003Z,1019.2
2019-05-12T05:20:36.094Z,1019.2
2019-05-12T05:21:38.486Z,1019.2
2019-05-12T05:22:40.555Z,1019.2
2019-05-12T05:23:44.888Z,1019.2
2019-05-12T05:24:46.948Z,1019.2
2019-05-12T05:25:49.025Z,1019.2
2019-05-12T05:26:53.752Z,1019.3
2019-05-12T05:27:56.387Z,1019.3
2019-05-12T05:28:58.505Z,1019.3
2019-05-12T05:30:00.584Z,1019.3
2019-05-12T05:31:06.080Z,1019.3
2019-05-12T05:32:08.438Z,1019.3
2019-05-12T05:33:10.511Z,1019.4
2019-05-12T05:34:15.254Z,1019.3
2019-05-12T05:35:18.119Z,1019.4
2019-05-12T05:36:20.557Z,1019.4
2019-05-12T05:37:24.226Z,1019.4
2019-05-12T05:38:26.358Z,1019.5
2019-05-12T05:39:28.440Z,1019.5
2019-05-12T05:40:30.696Z,1019.5
2019-05-12T05:41:34.826Z,1019.5
2019-05-12T05:42:54.831Z,1019.5
2019-05-12T05:43:58.780Z,1019.6
2019-05-12T05:45:00.869Z,1019.5
2019-05-12T05:46:08.501Z,1019.5
2019-05-12T05:47:10.849Z,1019.5
2019-05-12T05:48:15.532Z,1019.5
2019-05-12T05:49:17.628Z,1019.6
2019-05-12T05:50:29.443Z,1019.6
2019-05-12T05:51:33.820Z,1019.6
2019-05-12T05:52:56.376Z,1019.6
2019-05-12T05:53:58.403Z,1019.7
2019-05-12T05:55:05.612Z,1019.7
2019-05-12T05:56:42.871Z,1019.7
2019-05-12T05:58:10.745Z,1019.7
2019-05-12T05:59:15.620Z,1019.7
2019-05-12T06:00:39.253Z,1019.8
2019-05-12T06:01:52.391Z,1019.8
2019-05-12T06:02:57.141Z,1019.8
2019-05-12T06:04:08.569Z,1019.8
2019-05-12T06:05:11.239Z,1019.9
2019-05-12T06:06:16.143Z,1019.9
2019-05-12T06:07:18.204Z,1020
2019-05-12T06:08:40.821Z,1019.9
2019-05-12T06:09:43.544Z,1019.9
2019-05-12T06:10:46.039Z,1019.9
2019-05-12T06:11:48.505Z,1019.9
2019-05-12T06:12:51.213Z,1019.9
2019-05-12T06:13:55.902Z,1019.9
2019-05-12T06:15:00.187Z,1019.9
2019-05-12T06:16:04.627Z,1019.9
2019-05-12T06:17:07.106Z,1019.9
2019-05-12T06:18:09.216Z,1019.9
2019-05-12T06:19:11.307Z,1020
2019-05-12T06:20:15.916Z,1020
2019-05-12T06:21:18.035Z,1020
2019-05-12T06:22:20.108Z,1020
2019-05-12T06:23:28.874Z,1020
2019-05-12T06:24:40.925Z,1020
2019-05-12T06:25:54.613Z,1020
2019-05-12T06:27:06.412Z,1020
2019-05-12T06:28:25.241Z,1020
2019-05-12T06:29:33.629Z,1020.1
2019-05-12T06:30:49.429Z,1020.1
2019-05-12T06:31:54.460Z,1020.1
2019-05-12T06:32:56.543Z,1020.1
2019-05-12T06:33:58.632Z,1020.1
2019-05-12T06:35:04.645Z,1020.1
2019-05-12T06:36:13.560Z,1020.2
2019-05-12T06:37:28.967Z,1020.2
2019-05-12T06:38:39.232Z,1020.2
2019-05-12T06:39:45.119Z,1020.2
2019-05-12T06:40:47.256Z,1020.3
2019-05-12T06:41:49.325Z,1020.3
2019-05-12T06:42:57.187Z,1020.3
2019-05-12T06:43:59.346Z,1020.3
2019-05-12T06:45:03.952Z,1020.4
2019-05-12T06:46:06.119Z,1020.4
2019-05-12T06:47:08.686Z,1020.4
2019-05-12T06:48:10.820Z,1020.5
2019-05-12T06:49:18.145Z,1020.4
2019-05-12T06:50:20.252Z,1020.5
2019-05-12T06:51:26.180Z,1020.4
2019-05-12T06:52:28.251Z,1020.5
2019-05-12T06:53:33.545Z,1020.5
2019-05-12T06:54:35.703Z,1020.5
2019-05-12T06:55:40.110Z,1020.5
2019-05-12T06:56:45.062Z,1020.5
2019-05-12T06:58:34.470Z,1020.5
2019-05-12T06:59:36.650Z,1020.5
2019-05-12T07:00:38.671Z,1020.6
2019-05-12T07:01:40.759Z,1020.5
2019-05-12T07:02:55.144Z,1020.5
2019-05-12T07:04:06.339Z,1020.7
2019-05-12T07:05:14.787Z,1020.6
2019-05-12T07:06:20.125Z,1020.7
2019-05-12T07:07:27.774Z,1020.6
2019-05-12T07:09:09.141Z,1020.7
2019-05-12T07:11:01.493Z,1020.6
2019-05-12T07:12:08.207Z,1020.7
2019-05-12T07:13:28.262Z,1020.7
2019-05-12T07:14:31.507Z,1020.7
2019-05-12T07:15:40.828Z,1020.8
2019-05-12T07:16:45.630Z,1020.7
2019-05-12T07:17:50.154Z,1020.7
2019-05-12T07:18:57.241Z,1020.7
2019-05-12T07:19:59.328Z,1020.8
2019-05-12T07:21:01.475Z,1020.8
2019-05-12T07:22:25.931Z,1020.8
2019-05-12T07:23:50.170Z,1020.8
2019-05-12T07:24:55.042Z,1020.8
2019-05-12T07:25:57.460Z,1020.8
2019-05-12T07:27:09.261Z,1020.8
2019-05-12T07:28:11.536Z,1020.8
2019-05-12T07:29:16.692Z,1020.8
2019-05-12T07:30:19.050Z,1020.8
2019-05-12T07:31:23.494Z,1020.8
2019-05-12T07:32:25.552Z,1020.9
2019-05-12T07:33:41.302Z,1020.9
2019-05-12T07:34:47.815Z,1020.9
2019-05-12T07:36:01.144Z,1020.9
2019-05-12T07:37:08.283Z,1020.9
2019-05-12T07:38:20.735Z,1021
2019-05-12T07:39:27.769Z,1021
2019-05-12T07:40:37.638Z,1021
2019-05-12T07:41:50.696Z,1021
2019-05-12T07:42:56.831Z,1021.1
2019-05-12T07:44:03.501Z,1021.1
2019-05-12T07:45:05.715Z,1021
2019-05-12T07:46:07.867Z,1021.1
2019-05-12T07:47:09.950Z,1021.1
2019-05-12T07:48:14.134Z,1021.1
2019-05-12T07:49:16.238Z,1021.1
2019-05-12T07:50:39.921Z,1021.2
2019-05-12T07:51:42.001Z,1021.1
2019-05-12T07:52:46.525Z,1021.1
2019-05-12T07:53:59.109Z,1021.1
2019-05-12T07:55:04.075Z,1021.1
2019-05-12T07:56:06.736Z,1021.1
2019-05-12T07:57:17.490Z,1021.2
2019-05-12T07:58:19.938Z,1021.2
2019-05-12T07:59:40.619Z,1021.2
2019-05-12T08:00:45.639Z,1021.2
2019-05-12T08:01:54.859Z,1021.2
2019-05-12T08:02:57.014Z,1021.2
2019-05-12T08:04:01.564Z,1021.3
2019-05-12T08:05:06.229Z,1021.2
2019-05-12T08:06:25.428Z,1021.2
2019-05-12T08:07:30.205Z,1021.3
2019-05-12T08:08:34.232Z,1021.2
2019-05-12T08:09:37.015Z,1021.2
2019-05-12T08:10:39.544Z,1021.2
2019-05-12T08:11:43.704Z,1021.3
2019-05-12T08:12:45.871Z,1021.2
2019-05-12T08:14:03.870Z,1021.3
2019-05-12T08:15:10.006Z,1021.3
2019-05-12T08:16:19.425Z,1021.3
2019-05-12T08:17:49.014Z,1021.3
2019-05-12T08:19:04.255Z,1021.3
2019-05-12T08:20:24.592Z,1021.3
2019-05-12T08:21:27.078Z,1021.4
2019-05-12T08:22:29.866Z,1021.4
2019-05-12T08:23:37.673Z,1021.4
2019-05-12T08:24:47.951Z,1021.3
2019-05-12T08:25:54.801Z,1021.3
2019-05-12T08:27:06.563Z,1021.4
2019-05-12T08:28:19.071Z,1021.4
2019-05-12T08:29:43.603Z,1021.4
2019-05-12T08:30:54.358Z,1021.4
2019-05-12T08:31:57.010Z,1021.5
2019-05-12T08:33:09.780Z,1021.5
2019-05-12T08:34:14.317Z,1021.5
2019-05-12T08:35:32.044Z,1021.5
2019-05-12T08:36:56.538Z,1021.5
2019-05-12T08:38:00.672Z,1021.5
2019-05-12T08:39:17.998Z,1021.5
2019-05-12T08:40:28.048Z,1021.6
2019-05-12T08:41:30.830Z,1021.6
2019-05-12T08:42:35.814Z,1021.6
2019-05-12T08:43:46.803Z,1021.6
2019-05-12T08:45:00.471Z,1021.6
2019-05-12T08:46:15.558Z,1021.6
2019-05-12T08:47:18.154Z,1021.6
2019-05-12T08:48:25.268Z,1021.7
2019-05-12T08:49:50.855Z,1021.7
2019-05-12T08:51:14.422Z,1021.7
2019-05-12T08:52:23.895Z,1021.7
2019-05-12T08:53:26.597Z,1021.7
2019-05-12T08:54:28.742Z,1021.7
2019-05-12T08:55:35.628Z,1021.7
2019-05-12T08:56:38.106Z,1021.7
2019-05-12T08:57:48.951Z,1021.7
2019-05-12T08:58:54.655Z,1021.8
2019-05-12T09:00:08.414Z,1021.8
2019-05-12T09:01:10.910Z,1021.7
2019-05-12T09:02:16.045Z,1021.7
2019-05-12T09:03:26.534Z,1021.7
2019-05-12T09:04:35.194Z,1021.7
2019-05-12T09:05:39.004Z,1021.7
2019-05-12T09:06:43.740Z,1021.7
2019-05-12T09:07:46.229Z,1021.8
2019-05-12T09:08:50.170Z,1021.8
2019-05-12T09:09:53.700Z,1021.7
2019-05-12T09:10:56.069Z,1021.7
2019-05-12T09:11:58.819Z,1021.8
2019-05-12T09:13:03.942Z,1021.8
2019-05-12T09:14:06.753Z,1021.7
2019-05-12T09:15:09.318Z,1021.8
2019-05-12T09:16:14.050Z,1021.8
2019-05-12T09:17:16.493Z,1021.8
2019-05-12T09:18:19.595Z,1021.8
2019-05-12T09:19:27.183Z,1021.8
2019-05-12T09:20:29.485Z,1021.8
2019-05-12T09:21:37.052Z,1021.9
2019-05-12T09:22:39.473Z,1021.9
2019-05-12T09:23:45.798Z,1021.9
2019-05-12T09:24:48.412Z,1021.9
2019-05-12T09:25:50.568Z,1021.9
2019-05-12T09:27:08.935Z,1021.9
2019-05-12T09:28:13.589Z,1021.9
2019-05-12T09:29:15.905Z,1022
2019-05-12T09:30:18.041Z,1021.9
2019-05-12T09:31:29.589Z,1021.9
2019-05-12T09:32:34.164Z,1021.9
2019-05-12T09:34:03.388Z,1021.9
2019-05-12T09:35:18.438Z,1021.9
2019-05-12T09:36:24.267Z,1021.9
2019-05-12T09:37:38.566Z,1022
2019-05-12T09:38:45.335Z,1021.9
2019-05-12T09:39:53.763Z,1021.9
2019-05-12T09:41:03.162Z,1022
2019-05-12T09:42:07.599Z,1022
2019-05-12T09:43:13.440Z,1021.9
2019-05-12T09:44:26.236Z,1022
2019-05-12T09:45:33.664Z,1021.9
2019-05-12T09:46:37.947Z,1022
2019-05-12T09:47:40.636Z,1022
2019-05-12T09:48:55.017Z,1022
2019-05-12T09:49:57.424Z,1021.9
2019-05-12T09:51:04.795Z,1021.9
2019-05-12T09:52:23.119Z,1021.9
2019-05-12T09:53:29.152Z,1022
2019-05-12T09:54:40.712Z,1021.9
2019-05-12T09:55:45.893Z,1021.9
2019-05-12T09:56:55.251Z,1022
2019-05-12T09:58:04.348Z,1022
2019-05-12T09:59:22.751Z,1022
2019-05-12T10:00:35.695Z,1022
2019-05-12T10:01:43.778Z,1022
2019-05-12T10:02:58.816Z,1022
2019-05-12T10:04:16.036Z,1022
2019-05-12T10:05:22.288Z,1022
2019-05-12T10:06:24.914Z,1022
2019-05-12T10:07:27.320Z,1022
2019-05-12T10:08:37.956Z,1022
2019-05-12T10:09:40.190Z,1022
2019-05-12T10:10:47.223Z,1022
2019-05-12T10:12:00.451Z,1022
2019-05-12T10:13:07.838Z,1022
2019-05-12T10:14:13.823Z,1022
2019-05-12T10:15:24.599Z,1022
2019-05-12T10:16:30.741Z,1022.1
2019-05-12T10:17:35.367Z,1022.1
2019-05-12T10:18:51.537Z,1022
2019-05-12T10:19:58.472Z,1022
2019-05-12T10:21:00.627Z,1022.1
2019-05-12T10:22:03.391Z,1022.1
2019-05-12T10:23:16.424Z,1022.1
2019-05-12T10:24:41.696Z,1022
2019-05-12T10:26:10.245Z,1022.1
2019-05-12T10:27:27.024Z,1022.1
2019-05-12T10:28:36.934Z,1022.1
2019-05-12T10:29:39.228Z,1022.1
2019-05-12T10:30:41.570Z,1022.1
2019-05-12T10:31:58.089Z,1022.1
2019-05-12T10:33:00.259Z,1022.1
2019-05-12T10:34:05.377Z,1022.1
2019-05-12T10:35:21.249Z,1022.2
2019-05-12T10:36:28.847Z,1022.2
2019-05-12T10:37:30.974Z,1022.1
2019-05-12T10:38:34.634Z,1022.1
2019-05-12T10:39:36.746Z,1022.1
2019-05-12T10:40:38.884Z,1022.2
2019-05-12T10:41:40.993Z,1022.1
2019-05-12T10:42:49.757Z,1022.1
2019-05-12T10:43:57.823Z,1022.2
2019-05-12T10:45:00.022Z,1022.1
2019-05-12T10:46:04.454Z,1022.1
2019-05-12T10:47:06.548Z,1022.1
2019-05-12T10:48:08.712Z,1022.1
2019-05-12T10:49:11.070Z,1022.2
2019-05-12T10:50:15.571Z,1022.2
2019-05-12T10:51:17.982Z,1022.2
2019-05-12T10:52:20.070Z,1022.2
2019-05-12T10:53:23.843Z,1022.2
2019-05-12T10:54:26.216Z,1022.3
2019-05-12T10:55:28.368Z,1022.2
2019-05-12T10:56:30.495Z,1022.3
2019-05-12T10:57:33.657Z,1022.3
2019-05-12T10:58:35.817Z,1022.3
2019-05-12T10:59:47.871Z,1022.3
2019-05-12T11:00:50.777Z,1022.3
2019-05-12T11:02:09.483Z,1022.3
2019-05-12T11:03:15.735Z,1022.3
2019-05-12T11:04:36.641Z,1022.3
2019-05-12T11:05:45.621Z,1022.4
2019-05-12T11:06:48.817Z,1022.4
2019-05-12T11:07:50.967Z,1022.4
2019-05-12T11:08:55.440Z,1022.3
2019-05-12T11:10:15.095Z,1022.3
2019-05-12T11:11:24.873Z,1022.4
2019-05-12T11:12:29.517Z,1022.3
2019-05-12T11:13:34.047Z,1022.3
2019-05-12T11:14:36.410Z,1022.3
2019-05-12T11:15:45.762Z,1022.4
2019-05-12T11:16:54.442Z,1022.4
2019-05-12T11:17:57.372Z,1022.4
2019-05-12T11:19:06.223Z,1022.5
2019-05-12T11:20:15.004Z,1022.4
2019-05-12T11:21:17.096Z,1022.4
2019-05-12T11:22:19.194Z,1022.4
2019-05-12T11:23:21.349Z,1022.5
2019-05-12T11:24:26.263Z,1022.5
2019-05-12T11:25:28.638Z,1022.4
2019-05-12T11:26:30.766Z,1022.3
2019-05-12T11:27:34.820Z,1022.4
2019-05-12T11:28:37.187Z,1022.4
2019-05-12T11:29:49.416Z,1022.5
2019-05-12T11:30:51.975Z,1022.5
2019-05-12T11:31:54.294Z,1022.4
2019-05-12T11:32:59.946Z,1022.4
2019-05-12T11:34:05.129Z,1022.5
2019-05-12T11:35:07.821Z,1022.5
2019-05-12T11:36:09.940Z,1022.5
2019-05-12T11:37:14.871Z,1022.5
2019-05-12T11:38:17.030Z,1022.5
2019-05-12T11:39:19.069Z,1022.6
2019-05-12T11:40:21.211Z,1022.5
2019-05-12T11:41:28.781Z,1022.6
2019-05-12T11:42:33.843Z,1022.6
2019-05-12T11:43:36.221Z,1022.6
2019-05-12T11:44:38.311Z,1022.6
2019-05-12T11:45:40.536Z,1022.5
2019-05-12T11:46:45.404Z,1022.5
2019-05-12T11:47:47.567Z,1022.7
2019-05-12T11:48:50.762Z,1022.7
2019-05-12T11:50:04.817Z,1022.7
2019-05-12T11:51:14.763Z,1022.7
2019-05-12T11:52:19.728Z,1022.7
2019-05-12T11:53:32.168Z,1022.7
2019-05-12T11:54:46.999Z,1022.7
2019-05-12T11:55:55.698Z,1022.7
2019-05-12T11:56:58.194Z,1022.6
2019-05-12T11:58:11.352Z,1022.6
2019-05-12T11:59:14.525Z,1022.6
2019-05-12T12:00:17.072Z,1022.7
2019-05-12T12:01:19.178Z,1022.6
2019-05-12T12:02:30.599Z,1022.7
2019-05-12T12:03:35.256Z,1022.7
2019-05-12T12:04:37.370Z,1022.7
2019-05-12T12:05:39.461Z,1022.7
2019-05-12T12:06:44.031Z,1022.7
2019-05-12T12:07:53.310Z,1022.8
2019-05-12T12:08:58.091Z,1022.7
2019-05-12T12:10:00.299Z,1022.7
2019-05-12T12:11:05.211Z,1022.8
2019-05-12T12:12:29.460Z,1022.8
2019-05-12T12:13:33.864Z,1022.8
2019-05-12T12:14:46.055Z,1022.8
2019-05-12T12:15:54.948Z,1022.8
2019-05-12T12:17:13.905Z,1022.8
2019-05-12T12:18:16.026Z,1022.8
2019-05-12T12:19:18.406Z,1022.9
2019-05-12T12:20:24.650Z,1022.8
2019-05-12T12:21:26.921Z,1022.9
2019-05-12T12:22:30.231Z,1022.9
2019-05-12T12:23:33.782Z,1022.9
2019-05-12T12:24:38.679Z,1022.8
2019-05-12T12:25:48.400Z,1022.9
2019-05-12T12:26:54.865Z,1022.9
2019-05-12T12:27:57.012Z,1023
2019-05-12T12:28:59.429Z,1022.9
2019-05-12T12:30:19.616Z,1022.9
2019-05-12T12:31:35.406Z,1022.9
2019-05-12T12:32:40.823Z,1022.9
2019-05-12T12:33:47.425Z,1022.9
2019-05-12T12:34:49.570Z,1022.9
2019-05-12T12:36:00.760Z,1022.9
2019-05-12T12:37:05.341Z,1022.9
2019-05-12T12:38:07.436Z,1022.9
2019-05-12T12:39:09.546Z,1023
2019-05-12T12:40:11.717Z,1023
2019-05-12T12:41:16.525Z,1023
2019-05-12T12:42:18.674Z,1023
2019-05-12T12:43:20.760Z,1023
2019-05-12T12:44:24.462Z,1023.1
2019-05-12T12:45:36.456Z,1023.1
2019-05-12T12:46:45.266Z,1023.1
2019-05-12T12:47:54.335Z,1023.1
2019-05-12T12:49:06.253Z,1023.1
2019-05-12T12:50:15.211Z,1023.1
2019-05-12T12:51:34.454Z,1023
2019-05-12T12:52:44.678Z,1023.1
2019-05-12T12:53:50.809Z,1023
2019-05-12T12:54:59.200Z,1023.1
2019-05-12T12:56:28.360Z,1023.2
2019-05-12T12:57:33.840Z,1023.1
2019-05-12T12:58:36.247Z,1023
2019-05-12T12:59:52.601Z,1023.1
2019-05-12T13:00:57.311Z,1023.1
2019-05-12T13:02:09.268Z,1023
2019-05-12T13:03:14.626Z,1023.2
2019-05-12T13:04:33.965Z,1023.2
2019-05-12T13:05:54.482Z,1023.2
2019-05-12T13:06:56.579Z,1023.2
2019-05-12T13:07:58.688Z,1023.2
2019-05-12T13:09:00.814Z,1023.1
2019-05-12T13:10:10.029Z,1023.2
2019-05-12T13:11:14.910Z,1023.2
2019-05-12T13:12:19.940Z,1023.2
2019-05-12T13:13:24.866Z,1023.2
2019-05-12T13:14:37.011Z,1023.2
2019-05-12T13:15:40.401Z,1023.3
2019-05-12T13:16:44.048Z,1023.3
2019-05-12T13:17:57.636Z,1023.3
2019-05-12T13:19:12.104Z,1023.3
2019-05-12T13:20:19.321Z,1023.3
2019-05-12T13:21:21.413Z,1023.3
2019-05-12T13:22:24.810Z,1023.3
2019-05-12T13:23:41.052Z,1023.3
2019-05-12T13:24:44.237Z,1023.3
2019-05-12T13:25:54.187Z,1023.3
2019-05-12T13:26:57.219Z,1023.3
2019-05-12T13:28:10.121Z,1023.3
2019-05-12T13:29:39.590Z,1023.3
2019-05-12T13:30:49.728Z,1023.3
2019-05-12T13:31:54.066Z,1023.4
2019-05-12T13:32:56.193Z,1023.5
2019-05-12T13:33:58.278Z,1023.3
2019-05-12T13:35:00.426Z,1023.4
2019-05-12T13:36:04.634Z,1023.4
2019-05-12T13:37:15.331Z,1023.3
2019-05-12T13:38:24.055Z,1023.4
2019-05-12T13:39:26.536Z,1023.3
2019-05-12T13:40:35.730Z,1023.4
2019-05-12T13:41:43.967Z,1023.3
2019-05-12T13:42:46.074Z,1023.3
2019-05-12T13:43:59.539Z,1023.3
2019-05-12T13:45:03.933Z,1023.3
2019-05-12T13:46:06.032Z,1023.3
2019-05-12T13:47:08.183Z,1023.4
2019-05-12T13:48:20.054Z,1023.4
2019-05-12T13:49:25.220Z,1023.4
2019-05-12T13:50:48.883Z,1023.4
2019-05-12T13:51:51.094Z,1023.4
2019-05-12T13:52:55.320Z,1023.4
2019-05-12T13:54:11.779Z,1023.4
2019-05-12T13:55:16.294Z,1023.5
2019-05-12T13:56:25.254Z,1023.4
2019-05-12T13:57:38.110Z,1023.4
2019-05-12T13:58:59.481Z,1023.5
2019-05-12T14:00:10.797Z,1023.6